createdAt,value
2018-11-02T00:00:36.781Z,5.10
2018-11-02T00:01:33.785Z,5.50
2018-11-02T00:02:23.779Z,4.70
2018-11-02T00:03:10.763Z,5.30
2018-11-02T00:03:57.699Z,5.40
2018-11-02T00:04:44.566Z,5.37
2018-11-02T00:05:31.516Z,6.53
2018-11-02T00:06:18.504Z,6.62
2018-11-02T00:07:05.417Z,6.40
2018-11-02T00:07:52.319Z,7.10
2018-11-02T00:08:39.344Z,7.10
2018-11-02T00:09:26.445Z,7.70
2018-11-02T00:10:13.325Z,7.85
2018-11-02T00:11:00.394Z,7.37
2018-11-02T00:11:47.375Z,7.35
2018-11-02T00:12:34.586Z,7.30
2018-11-02T00:13:21.540Z,6.60
2018-11-02T00:14:09.298Z,6.60
2018-11-02T00:14:56.682Z,7.03
2018-11-02T00:16:02.886Z,7.15
2018-11-02T00:16:50.242Z,6.83
2018-11-02T00:17:37.922Z,6.30
2018-11-02T00:18:24.918Z,5.97
2018-11-02T00:19:12.306Z,5.80
2018-11-02T00:19:59.373Z,6.33
2018-11-02T00:20:46.611Z,5.85
2018-11-02T00:21:36.947Z,6.28
2018-11-02T00:22:23.981Z,5.47
2018-11-02T00:23:11.046Z,5.28
2018-11-02T00:23:57.871Z,4.85
2018-11-02T00:24:45.147Z,5.10
2018-11-02T00:25:32.133Z,4.50
2018-11-02T00:26:19.173Z,4.35
2018-11-02T00:27:06.146Z,4.43
2018-11-02T00:27:53.234Z,4.45
2018-11-02T00:28:40.515Z,4.43
2018-11-02T00:29:28.040Z,3.98
2018-11-02T00:30:15.172Z,4.43
2018-11-02T00:31:02.141Z,4.63
2018-11-02T00:31:52.877Z,3.45
2018-11-02T00:32:40.055Z,3.80
2018-11-02T00:33:27.415Z,4.00
2018-11-02T00:34:14.505Z,3.70
2018-11-02T00:35:01.689Z,3.83
2018-11-02T00:35:48.880Z,3.77
2018-11-02T00:36:36.127Z,3.70
2018-11-02T00:37:23.447Z,4.07
2018-11-02T00:38:10.636Z,3.62
2018-11-02T00:38:57.751Z,4.28
2018-11-02T00:39:45.053Z,4.03
2018-11-02T00:40:32.097Z,4.17
2018-11-02T00:41:19.198Z,4.00
2018-11-02T00:42:06.594Z,3.47
2018-11-02T00:42:53.723Z,3.50
2018-11-02T00:43:41.058Z,3.40
2018-11-02T00:44:27.871Z,3.93
2018-11-02T00:45:15.018Z,3.58
2018-11-02T00:46:01.981Z,3.30
2018-11-02T00:46:48.831Z,3.20
2018-11-02T00:47:35.968Z,3.62
2018-11-02T00:48:23.090Z,3.10
2018-11-02T00:49:10.008Z,2.72
2018-11-02T00:49:57.171Z,3.17
2018-11-02T00:50:44.200Z,2.47
2018-11-02T00:51:31.565Z,2.57
2018-11-02T00:52:18.369Z,2.47
2018-11-02T00:53:05.971Z,2.70
2018-11-02T00:53:52.925Z,2.67
2018-11-02T00:54:39.919Z,2.30
2018-11-02T00:55:26.893Z,2.10
2018-11-02T00:56:14.045Z,2.40
2018-11-02T00:57:00.896Z,2.30
2018-11-02T00:57:48.264Z,2.20
2018-11-02T00:58:34.987Z,2.40
2018-11-02T00:59:22.199Z,2.25
2018-11-02T01:00:11.132Z,1.97
2018-11-02T01:00:58.131Z,2.37
2018-11-02T01:01:45.200Z,2.17
2018-11-02T01:02:32.102Z,2.20
2018-11-02T01:03:19.148Z,1.98
2018-11-02T01:04:06.432Z,2.15
2018-11-02T01:04:53.360Z,2.10
2018-11-02T01:05:40.382Z,1.83
2018-11-02T01:06:27.432Z,1.95
2018-11-02T01:07:14.618Z,1.90
2018-11-02T01:08:01.590Z,2.10
2018-11-02T01:08:48.702Z,2.00
2018-11-02T01:09:36.187Z,1.60
2018-11-02T01:10:23.414Z,1.63
2018-11-02T01:11:10.106Z,1.75
2018-11-02T01:11:57.257Z,1.70
2018-11-02T01:12:44.200Z,1.65
2018-11-02T01:13:31.019Z,1.60
2018-11-02T01:14:18.297Z,1.60
2018-11-02T01:15:06.317Z,1.70
2018-11-02T01:15:52.949Z,1.55
2018-11-02T01:16:39.736Z,1.80
2018-11-02T01:17:26.741Z,1.70
2018-11-02T01:18:14.011Z,1.47
2018-11-02T01:19:01.172Z,1.60
2018-11-02T01:19:48.284Z,1.60
2018-11-02T01:20:35.302Z,1.60
2018-11-02T01:21:22.314Z,1.80
2018-11-02T01:22:09.485Z,1.77
2018-11-02T01:23:43.897Z,1.60
2018-11-02T01:24:31.580Z,1.60
2018-11-02T01:25:18.606Z,1.37
2018-11-02T01:26:06.407Z,1.27
2018-11-02T01:26:53.598Z,1.07
2018-11-02T01:27:40.647Z,1.85
2018-11-02T01:28:27.627Z,1.30
2018-11-02T01:29:14.706Z,1.30
2018-11-02T01:30:01.885Z,1.35
2018-11-02T01:30:50.206Z,1.27
2018-11-02T01:31:37.590Z,1.27
2018-11-02T01:32:25.780Z,1.50
2018-11-02T01:33:12.810Z,1.30
2018-11-02T01:34:00.008Z,1.30
2018-11-02T01:34:47.084Z,1.27
2018-11-02T01:35:34.211Z,1.30
2018-11-02T01:36:21.301Z,1.30
2018-11-02T01:37:08.354Z,1.30
2018-11-02T01:37:55.252Z,1.30
2018-11-02T01:38:42.289Z,1.37
2018-11-02T01:39:29.278Z,1.35
2018-11-02T01:40:16.417Z,1.37
2018-11-02T01:41:03.421Z,1.20
2018-11-02T01:41:50.290Z,1.27
2018-11-02T01:42:37.241Z,1.23
2018-11-02T01:43:24.370Z,1.30
2018-11-02T01:44:11.220Z,1.00
2018-11-02T01:44:58.184Z,1.40
2018-11-02T01:45:45.293Z,1.05
2018-11-02T01:46:32.102Z,1.10
2018-11-02T01:47:19.162Z,1.37
2018-11-02T01:48:06.337Z,1.27
2018-11-02T01:48:53.067Z,1.10
2018-11-02T01:49:39.897Z,1.20
2018-11-02T01:50:27.082Z,1.20
2018-11-02T01:51:13.968Z,1.20
2018-11-02T01:52:01.131Z,1.10
2018-11-02T01:52:48.034Z,1.25
2018-11-02T01:53:35.149Z,1.27
2018-11-02T01:54:23.009Z,1.17
2018-11-02T01:55:09.819Z,1.10
2018-11-02T01:55:57.034Z,1.20
2018-11-02T01:56:44.055Z,1.42
2018-11-02T01:57:31.090Z,1.20
2018-11-02T01:58:17.997Z,1.40
2018-11-02T01:59:05.413Z,1.20
2018-11-02T01:59:52.487Z,1.27
2018-11-02T02:00:39.537Z,1.20
2018-11-02T02:01:26.593Z,1.50
2018-11-02T02:02:13.458Z,1.37
2018-11-02T02:03:00.472Z,1.20
2018-11-02T02:03:47.560Z,1.10
2018-11-02T02:04:34.145Z,1.20
2018-11-02T02:05:21.092Z,1.27
2018-11-02T02:06:08.059Z,1.12
2018-11-02T02:06:55.100Z,1.27
2018-11-02T02:07:42.148Z,1.30
2018-11-02T02:08:29.410Z,1.33
2018-11-02T02:09:16.246Z,1.30
2018-11-02T02:10:03.358Z,1.50
2018-11-02T02:10:50.287Z,1.50
2018-11-02T02:11:36.978Z,1.60
2018-11-02T02:12:24.197Z,1.30
2018-11-02T02:13:11.464Z,1.65
2018-11-02T02:13:58.442Z,1.40
2018-11-02T02:14:45.607Z,1.27
2018-11-02T02:15:32.712Z,1.55
2018-11-02T02:16:19.800Z,1.80
2018-11-02T02:17:06.985Z,1.40
2018-11-02T02:17:54.052Z,1.65
2018-11-02T02:18:41.479Z,1.50
2018-11-02T02:19:28.614Z,1.50
2018-11-02T02:20:15.708Z,1.77
2018-11-02T02:21:02.949Z,1.98
2018-11-02T02:21:50.176Z,1.43
2018-11-02T02:22:37.352Z,1.50
2018-11-02T02:23:24.438Z,1.52
2018-11-02T02:24:11.585Z,1.90
2018-11-02T02:24:58.622Z,1.80
2018-11-02T02:25:45.665Z,2.00
2018-11-02T02:26:32.752Z,1.70
2018-11-02T02:27:19.684Z,1.50
2018-11-02T02:28:06.723Z,1.70
2018-11-02T02:28:53.807Z,1.80
2018-11-02T02:29:41.093Z,1.67
2018-11-02T02:30:28.061Z,1.80
2018-11-02T02:31:14.962Z,1.50
2018-11-02T02:32:02.082Z,1.98
2018-11-02T02:32:48.985Z,1.70
2018-11-02T02:33:36.012Z,2.03
2018-11-02T02:34:23.194Z,1.90
2018-11-02T02:35:10.840Z,2.27
2018-11-02T02:35:57.716Z,2.53
2018-11-02T02:36:44.736Z,2.20
2018-11-02T02:37:31.844Z,2.22
2018-11-02T02:38:18.848Z,2.27
2018-11-02T02:39:08.137Z,2.13
2018-11-02T02:39:55.249Z,2.30
2018-11-02T02:40:42.375Z,2.50
2018-11-02T02:41:29.245Z,2.08
2018-11-02T02:42:16.191Z,2.40
2018-11-02T02:43:03.201Z,2.63
2018-11-02T02:43:50.540Z,2.27
2018-11-02T02:44:37.406Z,2.90
2018-11-02T02:45:24.490Z,2.57
2018-11-02T02:46:11.468Z,2.40
2018-11-02T02:46:58.566Z,2.58
2018-11-02T02:47:45.590Z,2.87
2018-11-02T02:48:32.658Z,3.10
2018-11-02T02:49:19.656Z,3.08
2018-11-02T02:50:09.140Z,3.17
2018-11-02T02:50:56.094Z,3.33
2018-11-02T02:51:42.921Z,3.43
2018-11-02T02:52:30.053Z,3.05
2018-11-02T02:53:17.230Z,3.53
2018-11-02T02:54:04.384Z,3.80
2018-11-02T02:54:51.706Z,3.75
2018-11-02T02:55:38.777Z,3.65
2018-11-02T02:56:26.025Z,3.73
2018-11-02T02:57:13.171Z,4.03
2018-11-02T02:58:00.447Z,3.30
2018-11-02T02:58:47.758Z,3.75
2018-11-02T02:59:35.058Z,3.87
2018-11-02T03:00:21.978Z,3.67
2018-11-02T03:01:09.112Z,3.90
2018-11-02T03:01:56.349Z,4.63
2018-11-02T03:02:43.724Z,4.17
2018-11-02T03:03:30.352Z,4.60
2018-11-02T03:04:17.492Z,3.97
2018-11-02T03:05:04.614Z,4.07
2018-11-02T03:05:51.749Z,4.13
2018-11-02T03:06:38.911Z,4.40
2018-11-02T03:07:25.842Z,4.63
2018-11-02T03:08:12.863Z,4.12
2018-11-02T03:08:59.924Z,3.80
2018-11-02T03:09:47.064Z,4.50
2018-11-02T03:10:34.110Z,4.13
2018-11-02T03:11:21.331Z,4.95
2018-11-02T03:12:08.455Z,4.20
2018-11-02T03:12:55.363Z,4.42
2018-11-02T03:13:42.561Z,4.45
2018-11-02T03:14:29.450Z,4.58
2018-11-02T03:15:16.410Z,4.30
2018-11-02T03:16:03.438Z,4.60
2018-11-02T03:16:50.529Z,4.40
2018-11-02T03:17:38.148Z,4.35
2018-11-02T03:18:25.201Z,4.20
2018-11-02T03:19:12.200Z,4.47
2018-11-02T03:19:59.296Z,3.85
2018-11-02T03:20:46.306Z,4.72
2018-11-02T03:21:33.248Z,4.60
2018-11-02T03:22:20.496Z,4.62
2018-11-02T03:23:07.223Z,4.92
2018-11-02T03:23:54.229Z,4.90
2018-11-02T03:24:40.972Z,5.17
2018-11-02T03:25:28.026Z,4.72
2018-11-02T03:26:18.147Z,5.37
2018-11-02T03:27:05.266Z,5.08
2018-11-02T03:27:51.904Z,5.00
2018-11-02T03:28:39.014Z,4.80
2018-11-02T03:29:25.984Z,5.25
2018-11-02T03:30:13.168Z,5.42
2018-11-02T03:31:00.128Z,5.22
2018-11-02T03:31:46.998Z,5.37
2018-11-02T03:32:34.204Z,6.40
2018-11-02T03:33:21.142Z,5.95
2018-11-02T03:34:08.005Z,5.47
2018-11-02T03:34:55.025Z,6.25
2018-11-02T03:35:42.030Z,5.67
2018-11-02T03:36:29.050Z,6.78
2018-11-02T03:37:15.870Z,6.22
2018-11-02T03:38:02.902Z,6.42
2018-11-02T03:38:49.969Z,6.62
2018-11-02T03:39:37.045Z,6.45
2018-11-02T03:40:23.911Z,6.90
2018-11-02T03:41:11.131Z,7.20
2018-11-02T03:41:57.885Z,7.45
2018-11-02T03:42:45.172Z,6.95
2018-11-02T03:43:32.137Z,6.90
2018-11-02T03:44:19.265Z,6.80
2018-11-02T03:45:06.662Z,7.65
2018-11-02T03:45:53.877Z,7.42
2018-11-02T03:46:41.101Z,7.90
2018-11-02T03:47:28.180Z,7.87
2018-11-02T03:48:15.278Z,7.50
2018-11-02T03:49:02.431Z,6.73
2018-11-02T03:49:49.748Z,7.12
2018-11-02T03:50:36.780Z,7.28
2018-11-02T03:51:23.973Z,7.50
2018-11-02T03:52:11.197Z,6.83
2018-11-02T03:52:58.318Z,8.00
2018-11-02T03:53:45.496Z,7.87
2018-11-02T03:54:32.486Z,7.42
2018-11-02T03:55:19.608Z,7.20
2018-11-02T03:56:06.856Z,7.47
2018-11-02T03:56:53.934Z,7.62
2018-11-02T03:57:40.893Z,7.58
2018-11-02T03:58:27.903Z,7.08
2018-11-02T03:59:14.935Z,7.60
2018-11-02T04:00:02.064Z,7.67
2018-11-02T04:00:49.096Z,8.10
2018-11-02T04:01:36.138Z,8.05
2018-11-02T04:02:22.893Z,8.30
2018-11-02T04:03:09.998Z,7.75
2018-11-02T04:03:57.008Z,8.33
2018-11-02T04:04:44.147Z,8.83
2018-11-02T04:05:31.119Z,9.03
2018-11-02T04:06:18.412Z,8.45
2018-11-02T04:07:05.505Z,8.40
2018-11-02T04:07:52.521Z,9.77
2018-11-02T04:08:39.430Z,8.25
2018-11-02T04:09:26.611Z,7.80
2018-11-02T04:10:15.852Z,8.40
2018-11-02T04:11:02.964Z,8.35
2018-11-02T04:11:50.039Z,8.98
2018-11-02T04:12:36.768Z,8.20
2018-11-02T04:13:23.770Z,8.68
2018-11-02T04:14:10.878Z,8.13
2018-11-02T04:14:57.909Z,9.10
2018-11-02T04:15:45.052Z,8.95
2018-11-02T04:16:32.280Z,8.98
2018-11-02T04:17:19.327Z,9.33
2018-11-02T04:18:06.971Z,9.30
2018-11-02T04:18:53.779Z,9.03
2018-11-02T04:19:40.699Z,9.60
2018-11-02T04:20:27.921Z,9.20
2018-11-02T04:21:15.022Z,9.98
2018-11-02T04:22:02.058Z,9.40
2018-11-02T04:22:49.119Z,9.53
2018-11-02T04:23:35.905Z,9.30
2018-11-02T04:24:22.993Z,9.30
2018-11-02T04:25:09.907Z,9.48
2018-11-02T04:25:57.119Z,9.60
2018-11-02T04:26:43.979Z,9.48
2018-11-02T04:27:30.971Z,9.43
2018-11-02T04:28:17.922Z,9.33
2018-11-02T04:29:04.993Z,9.65
2018-11-02T04:29:52.072Z,9.18
2018-11-02T04:30:39.073Z,9.55
2018-11-02T04:31:26.184Z,9.68
2018-11-02T04:32:13.160Z,9.75
2018-11-02T04:33:00.138Z,9.48
2018-11-02T04:33:46.958Z,9.90
2018-11-02T04:34:33.968Z,10.88
2018-11-02T04:35:21.183Z,10.70
2018-11-02T04:36:07.972Z,10.23
2018-11-02T04:36:55.132Z,10.30
2018-11-02T04:37:42.276Z,10.50
2018-11-02T04:38:29.586Z,10.63
2018-11-02T04:39:16.786Z,9.75
2018-11-02T04:40:04.544Z,10.55
2018-11-02T04:40:51.469Z,10.10
2018-11-02T04:41:38.988Z,10.13
2018-11-02T04:42:26.061Z,10.47
2018-11-02T04:43:12.970Z,10.65
2018-11-02T04:44:00.256Z,10.48
2018-11-02T04:44:47.294Z,10.00
2018-11-02T04:45:41.114Z,10.70
2018-11-02T04:46:28.280Z,10.35
2018-11-02T04:47:15.222Z,10.72
2018-11-02T04:48:02.193Z,10.20
2018-11-02T04:48:49.234Z,10.38
2018-11-02T04:49:36.275Z,10.85
2018-11-02T04:50:23.350Z,10.68
2018-11-02T04:51:10.541Z,10.88
2018-11-02T04:51:57.518Z,10.98
2018-11-02T04:52:44.406Z,11.05
2018-11-02T04:53:31.357Z,10.15
2018-11-02T04:54:18.404Z,10.88
2018-11-02T04:55:05.897Z,11.45
2018-11-02T04:55:52.910Z,10.82
2018-11-02T04:56:39.913Z,10.23
2018-11-02T04:57:27.036Z,10.65
2018-11-02T04:58:14.008Z,11.43
2018-11-02T04:59:01.139Z,10.63
2018-11-02T04:59:48.038Z,11.20
2018-11-02T05:00:35.079Z,10.10
2018-11-02T05:01:22.473Z,11.97
2018-11-02T05:02:09.555Z,10.75
2018-11-02T05:02:56.628Z,12.07
2018-11-02T05:03:43.972Z,10.53
2018-11-02T05:04:31.198Z,11.00
2018-11-02T05:05:18.347Z,11.97
2018-11-02T05:06:05.352Z,11.48
2018-11-02T05:06:52.862Z,10.72
2018-11-02T05:07:40.078Z,11.53
2018-11-02T05:08:27.281Z,11.53
2018-11-02T05:09:14.570Z,10.95
2018-11-02T05:10:02.280Z,10.82
2018-11-02T05:10:49.373Z,10.10
2018-11-02T05:11:36.653Z,10.78
2018-11-02T05:12:23.770Z,10.88
2018-11-02T05:13:10.594Z,10.25
2018-11-02T05:13:57.754Z,10.93
2018-11-02T05:14:44.776Z,9.70
2018-11-02T05:15:32.277Z,11.10
2018-11-02T05:16:19.076Z,10.32
2018-11-02T05:17:06.136Z,11.65
2018-11-02T05:17:53.267Z,10.80
2018-11-02T05:18:40.333Z,10.72
2018-11-02T05:19:27.529Z,10.80
2018-11-02T05:20:14.580Z,9.88
2018-11-02T05:21:01.645Z,10.70
2018-11-02T05:21:48.775Z,17.73
2018-11-02T05:22:35.870Z,15.93
2018-11-02T05:23:22.736Z,16.75
2018-11-02T05:24:09.758Z,16.07
2018-11-02T05:24:57.505Z,23.50
2018-11-02T05:25:44.492Z,14.28
2018-11-02T05:26:31.600Z,10.78
2018-11-02T05:27:18.711Z,9.95
2018-11-02T05:28:05.896Z,10.90
2018-11-02T05:28:52.710Z,11.33
2018-11-02T05:29:39.770Z,10.98
2018-11-02T05:30:26.836Z,10.90
2018-11-02T05:31:13.770Z,10.55
2018-11-02T05:32:00.828Z,10.75
2018-11-02T05:32:47.755Z,10.72
2018-11-02T05:33:34.586Z,10.72
2018-11-02T05:34:21.565Z,10.30
2018-11-02T05:35:08.760Z,10.55
2018-11-02T05:35:56.173Z,10.10
2018-11-02T05:36:43.267Z,10.53
2018-11-02T05:37:30.290Z,10.23
2018-11-02T05:38:17.252Z,10.65
2018-11-02T05:39:06.561Z,10.90
2018-11-02T05:39:53.681Z,11.08
2018-11-02T05:40:40.824Z,9.88
2018-11-02T05:41:27.973Z,11.10
2018-11-02T05:42:14.895Z,10.23
2018-11-02T05:43:01.945Z,11.03
2018-11-02T05:43:48.859Z,10.88
2018-11-02T05:44:35.714Z,10.65
2018-11-02T05:45:22.678Z,9.98
2018-11-02T05:46:09.812Z,10.93
2018-11-02T05:46:57.031Z,9.25
2018-11-02T05:47:43.955Z,10.00
2018-11-02T05:48:30.953Z,10.58
2018-11-02T05:49:17.976Z,10.78
2018-11-02T05:50:05.236Z,11.08
2018-11-02T05:50:52.152Z,9.73
2018-11-02T05:51:39.251Z,10.50
2018-11-02T05:52:26.201Z,9.98
2018-11-02T05:53:13.434Z,10.82
2018-11-02T05:54:00.374Z,9.78
2018-11-02T05:54:47.294Z,10.25
2018-11-02T05:55:34.423Z,10.58
2018-11-02T05:56:21.671Z,9.55
2018-11-02T05:57:09.374Z,9.78
2018-11-02T05:57:56.761Z,9.65
2018-11-02T05:58:43.848Z,10.53
2018-11-02T05:59:31.028Z,10.50
2018-11-02T06:00:18.252Z,10.72
2018-11-02T06:01:05.790Z,9.73
2018-11-02T06:01:52.651Z,10.55
2018-11-02T06:02:39.698Z,10.95
2018-11-02T06:03:26.703Z,10.45
2018-11-02T06:04:13.832Z,10.93
2018-11-02T06:05:00.816Z,9.63
2018-11-02T06:05:47.941Z,11.08
2018-11-02T06:06:35.068Z,10.23
2018-11-02T06:07:22.051Z,10.90
2018-11-02T06:08:09.124Z,10.75
2018-11-02T06:08:56.187Z,10.72
2018-11-02T06:09:43.166Z,11.00
2018-11-02T06:10:29.986Z,10.60
2018-11-02T06:11:17.063Z,10.38
2018-11-02T06:12:04.493Z,10.72
2018-11-02T06:12:50.982Z,10.25
2018-11-02T06:13:38.376Z,9.60
2018-11-02T06:14:25.247Z,10.15
2018-11-02T06:15:12.328Z,10.43
2018-11-02T06:15:59.365Z,10.53
2018-11-02T06:16:46.507Z,10.58
2018-11-02T06:17:33.376Z,10.32
2018-11-02T06:18:20.590Z,10.65
2018-11-02T06:19:07.891Z,11.03
2018-11-02T06:19:54.733Z,10.72
2018-11-02T06:20:41.605Z,10.93
2018-11-02T06:21:28.697Z,11.68
2018-11-02T06:22:15.645Z,11.43
2018-11-02T06:23:02.755Z,10.85
2018-11-02T06:23:49.704Z,11.48
2018-11-02T06:24:36.707Z,11.63
2018-11-02T06:25:23.798Z,11.73
2018-11-02T06:26:10.758Z,11.90
2018-11-02T06:26:58.121Z,12.00
2018-11-02T06:27:44.810Z,12.30
2018-11-02T06:28:31.717Z,13.03
2018-11-02T06:29:18.813Z,12.45
2018-11-02T06:30:07.343Z,12.10
2018-11-02T06:30:54.151Z,12.65
2018-11-02T06:31:41.223Z,13.32
2018-11-02T06:32:27.987Z,14.10
2018-11-02T06:33:14.981Z,13.75
2018-11-02T06:34:01.978Z,13.60
2018-11-02T06:34:49.137Z,13.68
2018-11-02T06:35:36.551Z,13.65
2018-11-02T06:36:23.507Z,14.75
2018-11-02T06:37:10.592Z,14.68
2018-11-02T06:37:57.449Z,14.30
2018-11-02T06:38:44.886Z,14.63
2018-11-02T06:39:31.515Z,13.80
2018-11-02T06:40:18.657Z,14.25
2018-11-02T06:41:05.748Z,13.98
2018-11-02T06:41:52.639Z,13.95
2018-11-02T06:42:39.725Z,13.53
2018-11-02T06:43:26.593Z,12.90
2018-11-02T06:44:13.608Z,15.23
2018-11-02T06:45:00.663Z,13.15
2018-11-02T06:45:47.547Z,13.40
2018-11-02T06:46:34.642Z,13.10
2018-11-02T06:47:21.533Z,12.58
2018-11-02T06:48:08.624Z,11.93
2018-11-02T06:48:58.279Z,12.63
2018-11-02T06:49:45.263Z,12.33
2018-11-02T06:50:32.438Z,11.90
2018-11-02T06:51:19.570Z,11.60
2018-11-02T06:52:09.785Z,12.33
2018-11-02T06:52:57.180Z,11.57
2018-11-02T06:53:44.118Z,11.25
2018-11-02T06:54:30.833Z,11.78
2018-11-02T06:55:17.863Z,11.35
2018-11-02T06:56:04.901Z,12.03
2018-11-02T06:56:51.917Z,11.50
2018-11-02T06:57:39.185Z,10.68
2018-11-02T06:58:26.227Z,11.12
2018-11-02T06:59:13.258Z,10.98
2018-11-02T07:00:00.446Z,10.78
2018-11-02T07:00:47.325Z,10.95
2018-11-02T07:01:34.004Z,11.08
2018-11-02T07:02:20.927Z,11.25
2018-11-02T07:03:07.939Z,10.70
2018-11-02T07:03:54.872Z,11.05
2018-11-02T07:04:41.681Z,11.45
2018-11-02T07:05:28.577Z,11.08
2018-11-02T07:06:15.525Z,11.38
2018-11-02T07:07:02.674Z,10.03
2018-11-02T07:07:49.696Z,10.90
2018-11-02T07:08:36.756Z,10.90
2018-11-02T07:09:23.756Z,11.00
2018-11-02T07:10:11.062Z,11.20
2018-11-02T07:10:57.874Z,12.13
2018-11-02T07:11:44.970Z,10.53
2018-11-02T07:12:31.944Z,10.53
2018-11-02T07:13:18.872Z,11.05
2018-11-02T07:14:06.210Z,11.35
2018-11-02T07:14:53.000Z,10.98
2018-11-02T07:15:40.158Z,11.40
2018-11-02T07:16:27.044Z,10.65
2018-11-02T07:17:13.937Z,11.08
2018-11-02T07:18:00.947Z,10.80
2018-11-02T07:18:48.030Z,10.93
2018-11-02T07:19:35.067Z,10.53
2018-11-02T07:20:22.016Z,10.25
2018-11-02T07:21:08.923Z,11.15
2018-11-02T07:21:55.953Z,11.15
2018-11-02T07:22:42.882Z,10.88
2018-11-02T07:23:29.811Z,10.80
2018-11-02T07:24:16.850Z,10.98
2018-11-02T07:25:03.805Z,11.55
2018-11-02T07:25:50.653Z,11.18
2018-11-02T07:26:37.790Z,12.15
2018-11-02T07:27:24.891Z,10.55
2018-11-02T07:28:12.045Z,11.57
2018-11-02T07:28:58.914Z,11.25
2018-11-02T07:29:45.830Z,11.18
2018-11-02T07:30:32.920Z,11.50
2018-11-02T07:31:20.898Z,11.60
2018-11-02T07:32:07.581Z,11.33
2018-11-02T07:32:54.715Z,12.13
2018-11-02T07:33:41.780Z,11.48
2018-11-02T07:34:28.884Z,11.33
2018-11-02T07:35:15.768Z,11.65
2018-11-02T07:36:02.875Z,11.48
2018-11-02T07:36:49.800Z,11.48
2018-11-02T07:37:36.967Z,11.40
2018-11-02T07:38:23.876Z,11.90
2018-11-02T07:39:33.775Z,12.45
2018-11-02T07:40:22.976Z,11.18
2018-11-02T07:41:10.538Z,11.70
2018-11-02T07:41:57.193Z,11.33
2018-11-02T07:42:44.271Z,12.28
2018-11-02T07:43:31.380Z,11.95
2018-11-02T07:44:18.537Z,11.45
2018-11-02T07:45:06.495Z,11.75
2018-11-02T07:45:53.889Z,11.48
2018-11-02T07:46:40.742Z,11.55
2018-11-02T07:47:27.620Z,11.88
2018-11-02T07:48:14.759Z,11.25
2018-11-02T07:49:01.716Z,10.95
2018-11-02T07:49:48.793Z,10.80
2018-11-02T07:50:35.794Z,11.20
2018-11-02T07:51:22.961Z,11.20
2018-11-02T07:52:10.154Z,11.20
2018-11-02T07:52:58.560Z,11.35
2018-11-02T07:53:45.649Z,10.78
2018-11-02T07:54:32.581Z,11.75
2018-11-02T07:55:19.655Z,10.48
2018-11-02T07:56:12.937Z,11.12
2018-11-02T07:57:00.083Z,11.85
2018-11-02T07:57:47.006Z,11.33
2018-11-02T07:58:34.102Z,11.20
2018-11-02T07:59:21.070Z,11.65
2018-11-02T08:00:11.095Z,11.30
2018-11-02T08:00:58.392Z,11.38
2018-11-02T08:01:45.713Z,11.75
2018-11-02T08:02:32.609Z,11.55
2018-11-02T08:03:19.734Z,11.53
2018-11-02T08:04:06.717Z,11.25
2018-11-02T08:05:18.512Z,13.03
2018-11-02T08:06:05.829Z,11.50
2018-11-02T08:06:52.645Z,11.45
2018-11-02T08:07:39.545Z,11.90
2018-11-02T08:08:26.677Z,11.70
2018-11-02T08:09:14.560Z,12.25
2018-11-02T08:10:05.532Z,11.33
2018-11-02T08:10:56.676Z,11.35
2018-11-02T08:11:45.332Z,11.45
2018-11-02T08:12:32.601Z,11.15
2018-11-02T08:13:19.539Z,11.90
2018-11-02T08:14:06.879Z,11.68
2018-11-02T08:14:53.910Z,11.25
2018-11-02T08:15:40.782Z,11.48
2018-11-02T08:16:27.848Z,10.95
2018-11-02T08:17:14.864Z,11.45
2018-11-02T08:18:02.432Z,12.37
2018-11-02T08:18:49.495Z,11.95
2018-11-02T08:19:36.366Z,11.33
2018-11-02T08:20:23.336Z,12.13
2018-11-02T08:21:10.218Z,12.07
2018-11-02T08:21:57.257Z,12.05
2018-11-02T08:22:44.393Z,12.28
2018-11-02T08:23:31.526Z,12.05
2018-11-02T08:24:18.775Z,11.95
2018-11-02T08:25:08.330Z,13.05
2018-11-02T08:26:01.557Z,12.23
2018-11-02T08:26:49.314Z,12.28
2018-11-02T08:27:44.699Z,12.03
2018-11-02T08:28:31.948Z,12.45
2018-11-02T08:29:19.210Z,11.40
2018-11-02T08:30:07.797Z,11.57
2018-11-02T08:30:54.732Z,11.95
2018-11-02T08:31:41.949Z,12.20
2018-11-02T08:32:29.024Z,11.75
2018-11-02T08:33:16.317Z,11.25
2018-11-02T08:34:03.786Z,11.83
2018-11-02T08:34:50.822Z,12.53
2018-11-02T08:35:37.852Z,11.75
2018-11-02T08:36:24.850Z,11.20
2018-11-02T08:37:12.066Z,12.15
2018-11-02T08:37:59.041Z,11.97
2018-11-02T08:38:46.144Z,11.63
2018-11-02T08:39:33.102Z,10.48
2018-11-02T08:40:20.488Z,11.03
2018-11-02T08:41:07.416Z,11.43
2018-11-02T08:41:54.275Z,11.48
2018-11-02T08:42:41.872Z,12.23
2018-11-02T08:43:29.025Z,12.30
2018-11-02T08:44:15.814Z,11.88
2018-11-02T08:45:02.890Z,13.28
2018-11-02T08:45:49.686Z,11.95
2018-11-02T08:46:36.969Z,11.68
2018-11-02T08:47:23.602Z,11.85
2018-11-02T08:48:10.545Z,12.35
2018-11-02T08:48:57.568Z,12.37
2018-11-02T08:49:44.738Z,11.85
2018-11-02T08:50:31.517Z,11.53
2018-11-02T08:51:18.985Z,11.53
2018-11-02T08:52:06.858Z,11.68
2018-11-02T08:52:53.875Z,11.35
2018-11-02T08:53:40.893Z,11.93
2018-11-02T08:54:28.040Z,12.78
2018-11-02T08:55:15.308Z,11.60
2018-11-02T08:56:02.266Z,11.18
2018-11-02T08:56:49.138Z,11.55
2018-11-02T08:57:41.564Z,11.65
2018-11-02T08:58:28.924Z,11.80
2018-11-02T08:59:16.009Z,11.73
2018-11-02T09:00:03.499Z,11.50
2018-11-02T09:00:51.552Z,12.15
2018-11-02T09:01:53.041Z,11.00
2018-11-02T09:02:45.764Z,11.60
2018-11-02T09:03:32.960Z,10.75
2018-11-02T09:04:20.668Z,11.45
2018-11-02T09:05:08.028Z,11.00
2018-11-02T09:05:55.029Z,11.33
2018-11-02T09:06:42.022Z,11.60
2018-11-02T09:07:29.056Z,11.13
2018-11-02T09:08:27.468Z,11.23
2018-11-02T09:09:15.137Z,10.70
2018-11-02T09:10:02.473Z,11.30
2018-11-02T09:10:50.084Z,10.93
2018-11-02T09:11:37.459Z,17.20
2018-11-02T09:12:24.286Z,12.07
2018-11-02T09:13:11.131Z,10.67
2018-11-02T09:13:58.141Z,12.17
2018-11-02T09:14:45.095Z,12.03
2018-11-02T09:15:32.294Z,10.53
2018-11-02T09:16:19.282Z,10.17
2018-11-02T09:17:07.226Z,9.93
2018-11-02T09:17:53.976Z,10.77
2018-11-02T09:18:40.990Z,10.50
2018-11-02T09:19:28.319Z,10.23
2018-11-02T09:20:15.152Z,11.17
2018-11-02T09:21:02.231Z,13.53
2018-11-02T09:21:48.905Z,10.93
2018-11-02T09:22:38.401Z,10.40
2018-11-02T09:23:25.443Z,10.10
2018-11-02T09:24:12.645Z,10.87
2018-11-02T09:24:59.900Z,9.77
2018-11-02T09:25:46.988Z,9.90
2018-11-02T09:26:34.054Z,9.20
2018-11-02T09:27:21.018Z,10.03
2018-11-02T09:28:08.067Z,10.13
2018-11-02T09:28:55.630Z,11.00
2018-11-02T09:29:42.300Z,9.50
2018-11-02T09:30:29.195Z,9.77
2018-11-02T09:31:16.200Z,9.33
2018-11-02T09:32:03.089Z,10.70
2018-11-02T09:32:50.090Z,9.50
2018-11-02T09:33:37.292Z,9.30
2018-11-02T09:34:24.312Z,9.83
2018-11-02T09:35:11.553Z,9.23
2018-11-02T09:35:58.562Z,9.63
2018-11-02T09:36:45.612Z,9.73
2018-11-02T09:37:32.809Z,9.83
2018-11-02T09:38:19.722Z,9.10
2018-11-02T09:39:09.712Z,9.33
2018-11-02T09:39:56.706Z,9.23
2018-11-02T09:40:43.817Z,9.37
2018-11-02T09:41:31.078Z,8.70
2018-11-02T09:42:18.254Z,8.53
2018-11-02T09:43:05.162Z,9.30
2018-11-02T09:43:52.156Z,9.37
2018-11-02T09:44:39.270Z,9.40
2018-11-02T09:45:26.240Z,9.17
2018-11-02T09:46:13.330Z,9.37
2018-11-02T09:47:00.493Z,9.20
2018-11-02T09:47:47.568Z,8.70
2018-11-02T09:48:34.288Z,9.43
2018-11-02T09:49:21.179Z,9.60
2018-11-02T09:50:09.037Z,9.23
2018-11-02T09:50:55.924Z,9.07
2018-11-02T09:51:43.068Z,8.37
2018-11-02T09:52:29.636Z,8.90
2018-11-02T09:53:19.298Z,8.80
2018-11-02T09:54:06.378Z,8.67
2018-11-02T09:54:53.151Z,8.07
2018-11-02T09:55:40.179Z,8.40
2018-11-02T09:56:27.125Z,8.87
2018-11-02T09:57:14.153Z,7.77
2018-11-02T09:58:01.125Z,7.60
2018-11-02T09:58:48.183Z,7.73
2018-11-02T09:59:35.120Z,7.47
2018-11-02T10:00:22.114Z,7.43
2018-11-02T10:01:09.112Z,7.20
2018-11-02T10:01:56.143Z,7.43
2018-11-02T10:02:43.385Z,7.90
2018-11-02T10:03:30.409Z,7.90
2018-11-02T10:04:17.482Z,7.67
2018-11-02T10:05:05.579Z,8.10
2018-11-02T10:05:52.305Z,7.63
2018-11-02T10:06:39.296Z,7.53
2018-11-02T10:07:26.284Z,7.47
2018-11-02T10:08:13.349Z,7.63
2018-11-02T10:09:00.161Z,6.97
2018-11-02T10:09:47.371Z,7.63
2018-11-02T10:10:34.525Z,7.17
2018-11-02T10:11:22.431Z,6.90
2018-11-02T10:12:08.995Z,6.07
2018-11-02T10:12:55.999Z,6.60
2018-11-02T10:13:42.943Z,6.47
2018-11-02T10:14:30.049Z,5.70
2018-11-02T10:15:17.114Z,5.60
2018-11-02T10:16:04.081Z,5.47
2018-11-02T10:16:51.090Z,5.90
2018-11-02T10:17:38.281Z,6.10
2018-11-02T10:18:25.457Z,6.00
2018-11-02T10:19:12.375Z,5.60
2018-11-02T10:19:59.540Z,5.20
2018-11-02T10:20:46.810Z,5.67
2018-11-02T10:21:33.946Z,5.13